createdAt,value
2018-07-28T00:00:51.992Z,98.22
2018-07-28T00:03:50.085Z,98.18
2018-07-28T00:06:49.185Z,98.83
2018-07-28T00:09:47.216Z,98.62
2018-07-28T00:12:45.387Z,99.55
2018-07-28T00:15:43.552Z,99.53
2018-07-28T00:18:41.968Z,99.23
2018-07-28T00:21:41.324Z,99.40
2018-07-28T00:24:39.136Z,98.81
2018-07-28T00:27:38.536Z,99.10
2018-07-28T00:30:37.310Z,98.91
2018-07-28T00:33:35.902Z,98.54
2018-07-28T00:36:35.234Z,98.58
2018-07-28T00:39:33.157Z,99.17
2018-07-28T00:42:31.613Z,98.86
2018-07-28T00:45:30.556Z,98.71
2018-07-28T00:48:28.602Z,99.82
2018-07-28T00:51:27.076Z,100.00
2018-07-28T00:54:26.300Z,100.00
2018-07-28T00:57:24.138Z,99.70
2018-07-28T01:00:23.524Z,99.84
2018-07-28T01:03:22.193Z,100.00
2018-07-28T01:06:20.776Z,100.00
2018-07-28T01:09:22.364Z,99.88
2018-07-28T01:12:21.513Z,99.90
2018-07-28T01:15:21.711Z,100.00
2018-07-28T01:18:19.964Z,100.00
2018-07-28T01:21:18.312Z,100.00
2018-07-28T01:24:16.676Z,100.00
2018-07-28T01:27:14.872Z,100.00
2018-07-28T01:30:12.973Z,100.00
2018-07-28T01:33:12.527Z,100.00
2018-07-28T01:36:10.985Z,100.00
2018-07-28T01:39:10.176Z,100.00
2018-07-28T01:42:08.364Z,100.00
2018-07-28T01:45:06.541Z,100.00
2018-07-28T01:48:05.244Z,99.32
2018-07-28T01:51:03.891Z,96.97
2018-07-28T01:54:02.041Z,95.96
2018-07-28T01:57:00.453Z,96.43
2018-07-28T01:59:58.885Z,95.26
2018-07-28T02:02:58.352Z,95.23
2018-07-28T02:05:56.529Z,94.76
2018-07-28T02:08:54.633Z,94.70
2018-07-28T02:11:53.892Z,96.10
2018-07-28T02:14:52.341Z,97.75
2018-07-28T02:17:50.612Z,98.67
2018-07-28T02:20:48.860Z,99.48
2018-07-28T02:23:47.156Z,99.20
2018-07-28T02:26:47.511Z,100.00
2018-07-28T02:29:48.707Z,100.00
2018-07-28T02:32:46.953Z,100.00
2018-07-28T02:35:45.221Z,100.00
2018-07-28T02:38:43.188Z,100.00
2018-07-28T02:41:41.451Z,100.00
2018-07-28T02:44:39.605Z,100.00
2018-07-28T02:47:38.628Z,100.00
2018-07-28T02:50:38.218Z,100.00
2018-07-28T02:53:36.433Z,100.00
2018-07-28T02:56:35.891Z,100.00
2018-07-28T02:59:33.625Z,100.00
2018-07-28T03:02:32.000Z,100.00
2018-07-28T03:05:29.765Z,100.00
2018-07-28T03:08:30.953Z,96.89
2018-07-28T03:11:29.168Z,95.95
2018-07-28T03:14:27.367Z,96.60
2018-07-28T03:17:26.135Z,96.27
2018-07-28T03:20:24.063Z,97.95
2018-07-28T03:23:22.129Z,98.19
2018-07-28T03:26:21.245Z,100.00
2018-07-28T03:29:19.068Z,100.00
2018-07-28T03:32:17.780Z,100.00
2018-07-28T03:35:16.947Z,100.00
2018-07-28T03:38:14.603Z,100.00
2018-07-28T03:41:13.600Z,100.00
2018-07-28T03:44:11.713Z,100.00
2018-07-28T03:47:10.830Z,100.00
2018-07-28T03:50:10.304Z,100.00
2018-07-28T03:53:09.258Z,100.00
2018-07-28T03:56:10.069Z,100.00
2018-07-28T03:59:07.996Z,100.00
2018-07-28T04:02:06.155Z,100.00
2018-07-28T04:05:04.601Z,100.00
2018-07-28T04:08:03.084Z,100.00
2018-07-28T04:11:01.232Z,100.00
2018-07-28T04:14:00.451Z,100.00
2018-07-28T04:16:59.556Z,100.00
2018-07-28T04:19:59.339Z,100.00
2018-07-28T04:22:59.702Z,100.00
2018-07-28T04:25:57.704Z,100.00
2018-07-28T04:28:56.150Z,100.00
2018-07-28T04:31:55.256Z,100.00
2018-07-28T04:34:53.904Z,100.00
2018-07-28T04:37:52.313Z,100.00
2018-07-28T04:40:51.450Z,100.00
2018-07-28T04:43:49.476Z,100.00
2018-07-28T04:46:48.375Z,100.00
2018-07-28T04:49:46.964Z,100.00
2018-07-28T04:52:45.329Z,100.00
2018-07-28T04:55:43.308Z,100.00
2018-07-28T04:58:42.174Z,100.00
2018-07-28T05:01:40.528Z,100.00
2018-07-28T05:04:38.404Z,100.00
2018-07-28T05:07:37.244Z,99.20
2018-07-28T05:10:37.351Z,99.36
2018-07-28T05:13:36.001Z,99.17
2018-07-28T05:16:34.135Z,98.56
2018-07-28T05:19:32.302Z,97.14
2018-07-28T05:22:30.744Z,97.31
2018-07-28T05:25:29.054Z,95.75
2018-07-28T05:28:27.445Z,94.00
2018-07-28T05:31:28.910Z,93.37
2018-07-28T05:34:27.304Z,93.24
2018-07-28T05:37:27.599Z,92.06
2018-07-28T05:40:25.553Z,92.29
2018-07-28T05:43:23.560Z,93.24
2018-07-28T05:46:21.744Z,90.58
2018-07-28T05:49:20.176Z,90.43
2018-07-28T05:52:18.629Z,90.01
2018-07-28T05:55:17.319Z,88.99
2018-07-28T05:58:15.780Z,88.22
2018-07-28T06:01:15.390Z,86.61
2018-07-28T06:04:13.519Z,87.85
2018-07-28T06:07:11.873Z,87.16
2018-07-28T06:10:11.411Z,87.08
2018-07-28T06:13:09.989Z,85.81
2018-07-28T06:16:08.120Z,83.57
2018-07-28T06:19:08.454Z,83.32
2018-07-28T06:22:06.854Z,79.34
2018-07-28T06:25:05.397Z,77.87
2018-07-28T06:28:03.534Z,77.78
2018-07-28T06:31:05.909Z,77.11
2018-07-28T06:34:03.988Z,78.22
2018-07-28T06:37:02.095Z,78.09
2018-07-28T06:40:00.233Z,76.81
2018-07-28T06:42:58.385Z,76.13
2018-07-28T06:45:56.568Z,75.18
2018-07-28T06:48:56.427Z,74.99
2018-07-28T06:51:54.564Z,75.73
2018-07-28T06:54:52.755Z,75.15
2018-07-28T06:57:51.207Z,73.62
2018-07-28T07:00:49.698Z,73.82
2018-07-28T07:03:47.735Z,72.23
2018-07-28T07:06:45.970Z,72.67
2018-07-28T07:09:46.416Z,73.60
2018-07-28T07:12:44.818Z,73.97
2018-07-28T07:15:43.644Z,72.24
2018-07-28T07:18:41.887Z,72.60
2018-07-28T07:21:42.326Z,72.25
2018-07-28T07:24:41.456Z,71.13
2018-07-28T07:27:40.165Z,70.34
2018-07-28T07:30:37.973Z,70.82
2018-07-28T07:33:36.412Z,69.68
2018-07-28T07:36:34.496Z,70.55
2018-07-28T07:39:32.956Z,71.03
2018-07-28T07:42:31.140Z,70.80
2018-07-28T07:45:29.153Z,69.92
2018-07-28T07:48:29.135Z,70.43
2018-07-28T07:51:28.561Z,70.35
2018-07-28T07:54:26.959Z,69.05
2018-07-28T07:57:25.620Z,69.52
2018-07-28T08:00:23.980Z,68.00
2018-07-28T08:03:22.219Z,69.41
2018-07-28T08:06:20.520Z,67.82
2018-07-28T08:09:18.355Z,67.79
2018-07-28T08:12:16.464Z,67.96
2018-07-28T08:15:15.640Z,67.81
2018-07-28T08:18:14.703Z,66.74
2018-07-28T08:21:13.053Z,68.06
2018-07-28T08:24:11.144Z,68.00
2018-07-28T08:27:09.488Z,64.59
2018-07-28T08:30:07.496Z,65.19
2018-07-28T08:33:05.780Z,65.59
2018-07-28T08:36:04.715Z,64.43
2018-07-28T08:39:04.556Z,64.34
2018-07-28T08:42:02.805Z,63.89
2018-07-28T08:45:01.903Z,63.84
2018-07-28T08:48:01.142Z,64.10
2018-07-28T08:50:59.299Z,61.92
2018-07-28T08:53:57.464Z,61.84
2018-07-28T08:56:55.689Z,62.43
2018-07-28T08:59:53.998Z,58.28
2018-07-28T09:02:52.156Z,59.02
2018-07-28T09:05:50.688Z,59.81
2018-07-28T09:08:49.481Z,61.01
2018-07-28T09:11:47.425Z,59.09
2018-07-28T09:14:45.293Z,57.78
2018-07-28T09:17:43.325Z,57.81
2018-07-28T09:20:41.375Z,57.24
2018-07-28T09:23:40.114Z,55.65
2018-07-28T09:26:38.066Z,54.60
2018-07-28T09:29:36.554Z,55.47
2018-07-28T09:32:34.796Z,54.71
2018-07-28T09:35:33.386Z,54.93
2018-07-28T09:38:31.478Z,53.63
2018-07-28T09:41:29.903Z,54.21
2018-07-28T09:44:28.174Z,56.72
2018-07-28T09:47:26.568Z,54.23
2018-07-28T09:50:24.361Z,55.76
2018-07-28T09:53:24.114Z,54.93
2018-07-28T09:56:21.924Z,54.63
2018-07-28T09:59:20.208Z,52.18
2018-07-28T10:02:19.200Z,53.16
2018-07-28T10:05:17.656Z,51.63
2018-07-28T10:08:15.919Z,50.49
2018-07-28T10:11:14.578Z,51.15
2018-07-28T10:14:12.704Z,50.84
2018-07-28T10:17:11.541Z,49.75
2018-07-28T10:20:09.873Z,48.81
2018-07-28T10:23:07.972Z,46.73
2018-07-28T10:26:07.044Z,48.43
2018-07-28T10:29:05.216Z,49.69
2018-07-28T10:32:04.681Z,49.99
2018-07-28T10:35:03.100Z,51.28
2018-07-28T10:38:01.106Z,47.77
2018-07-28T10:41:00.313Z,48.44
2018-07-28T10:43:58.626Z,47.68
2018-07-28T10:46:56.900Z,48.87
2018-07-28T10:49:54.896Z,48.62
2018-07-28T10:52:54.085Z,47.69
2018-07-28T10:55:53.242Z,47.50
2018-07-28T10:58:52.460Z,43.97
2018-07-28T11:01:53.255Z,46.07
2018-07-28T11:04:52.694Z,42.69
2018-07-28T11:07:50.597Z,43.54
2018-07-28T11:10:48.792Z,41.80
2018-07-28T11:13:46.948Z,40.91
2018-07-28T11:16:45.238Z,41.44
2018-07-28T11:19:44.414Z,42.87
2018-07-28T11:22:42.594Z,42.91
2018-07-28T11:25:40.558Z,41.44
2018-07-28T11:28:38.711Z,40.80
2018-07-28T11:32:50.644Z,42.08
2018-07-28T11:37:01.021Z,41.87
2018-07-28T11:40:11.184Z,44.88
2018-07-28T11:43:21.405Z,43.27
2018-07-28T11:46:19.523Z,42.75
2018-07-28T11:49:17.470Z,41.87
2018-07-28T11:52:15.681Z,41.86
2018-07-28T11:55:13.777Z,41.43
2018-07-28T11:58:12.148Z,41.84
2018-07-28T12:01:11.246Z,41.16
2018-07-28T12:04:10.500Z,39.96
2018-07-28T12:07:09.004Z,37.88
2018-07-28T12:10:07.532Z,34.99
2018-07-28T12:13:08.805Z,33.39
2018-07-28T12:16:06.850Z,32.04
2018-07-28T12:19:05.288Z,30.21
2018-07-28T12:22:03.456Z,29.82
2018-07-28T12:25:01.750Z,28.85
2018-07-28T12:27:59.964Z,29.01
2018-07-28T12:30:58.490Z,26.02
2018-07-28T12:33:56.412Z,25.76
2018-07-28T12:36:54.709Z,26.45
2018-07-28T12:39:52.721Z,25.42
2018-07-28T12:42:52.037Z,26.20
2018-07-28T12:45:49.773Z,28.37
2018-07-28T12:48:47.986Z,29.78
2018-07-28T12:51:46.235Z,32.55
2018-07-28T12:54:44.335Z,34.45
2018-07-28T12:57:42.553Z,35.89
2018-07-28T13:00:40.425Z,34.53
2018-07-28T13:03:38.870Z,35.17
2018-07-28T13:06:37.242Z,36.24
2018-07-28T13:09:35.791Z,37.28
2018-07-28T13:12:34.008Z,35.94
2018-07-28T13:15:32.246Z,35.08
2018-07-28T13:18:30.709Z,33.41
2018-07-28T13:21:28.993Z,33.93
2018-07-28T13:24:26.977Z,32.09
2018-07-28T13:27:25.296Z,32.94
2018-07-28T13:30:23.582Z,33.60
2018-07-28T13:33:21.930Z,33.83
2018-07-28T13:36:22.360Z,32.81
2018-07-28T13:39:21.632Z,32.70
2018-07-28T13:42:19.872Z,33.05
2018-07-28T13:45:18.037Z,31.62
2018-07-28T13:48:16.379Z,30.59
2018-07-28T13:51:14.484Z,29.35
2018-07-28T13:54:12.509Z,27.32
2018-07-28T13:57:11.036Z,27.07
2018-07-28T14:00:09.121Z,26.21
2018-07-28T14:03:08.777Z,26.66
2018-07-28T14:06:08.192Z,25.65
2018-07-28T14:09:08.197Z,27.01
2018-07-28T14:12:06.346Z,27.09
2018-07-28T14:15:04.391Z,26.20
2018-07-28T14:18:02.787Z,25.84
2018-07-28T14:21:00.816Z,26.01
2018-07-28T14:24:01.641Z,25.83
2018-07-28T14:27:00.738Z,24.54
2018-07-28T14:29:59.318Z,23.77
2018-07-28T14:32:57.466Z,24.14
2018-07-28T14:35:56.365Z,24.19
2018-07-28T14:38:54.685Z,23.45
2018-07-28T14:42:02.035Z,24.25
2018-07-28T14:45:00.747Z,27.05
2018-07-28T14:47:58.437Z,26.71
2018-07-28T14:50:56.322Z,27.92
2018-07-28T14:53:54.455Z,28.80
2018-07-28T14:56:52.917Z,29.73
2018-07-28T14:59:53.601Z,30.90
2018-07-28T15:02:52.000Z,29.63
2018-07-28T15:05:51.488Z,31.68
2018-07-28T15:08:49.553Z,32.01
2018-07-28T15:11:48.297Z,31.67
2018-07-28T15:14:46.348Z,31.54
2018-07-28T15:17:44.855Z,30.82
2018-07-28T15:20:43.828Z,30.13
2018-07-28T15:23:41.799Z,28.15
2018-07-28T15:26:41.507Z,26.44
2018-07-28T15:29:40.059Z,27.46
2018-07-28T15:32:39.476Z,27.29
2018-07-28T15:35:37.941Z,26.82
2018-07-28T15:38:36.527Z,27.32
2018-07-28T15:41:34.921Z,28.84
2018-07-28T15:44:33.216Z,28.94
2018-07-28T15:47:32.835Z,31.95
2018-07-28T15:50:33.434Z,34.52
2018-07-28T15:53:31.421Z,37.17
2018-07-28T15:56:29.736Z,39.26
2018-07-28T15:59:28.344Z,40.06
2018-07-28T16:02:26.255Z,39.75
2018-07-28T16:05:25.680Z,40.75
2018-07-28T16:08:24.105Z,41.34
2018-07-28T16:11:22.181Z,41.03
2018-07-28T16:14:20.597Z,41.10
2018-07-28T16:17:19.805Z,41.60
2018-07-28T16:20:17.957Z,42.12
2018-07-28T16:23:17.349Z,43.56
2018-07-28T16:26:15.804Z,44.60
2018-07-28T16:29:13.967Z,45.28
2018-07-28T16:32:11.716Z,44.95
2018-07-28T16:35:10.196Z,44.94
2018-07-28T16:38:08.292Z,44.09
2018-07-28T16:41:07.137Z,43.07
2018-07-28T16:44:05.087Z,40.63
2018-07-28T16:47:03.194Z,36.13
2018-07-28T16:50:01.807Z,34.00
2018-07-28T16:53:01.323Z,32.17
2018-07-28T16:55:59.778Z,30.82
2018-07-28T16:59:00.364Z,31.89
2018-07-28T17:01:59.882Z,31.99
2018-07-28T17:04:58.008Z,32.33
2018-07-28T17:07:57.276Z,33.26
2018-07-28T17:10:56.340Z,32.48
2018-07-28T17:13:55.648Z,33.31
2018-07-28T17:16:53.701Z,32.34
2018-07-28T17:19:52.197Z,32.03
2018-07-28T17:22:50.927Z,31.29
2018-07-28T17:25:49.388Z,32.15
2018-07-28T17:28:47.645Z,33.36
2018-07-28T17:31:45.596Z,34.32
2018-07-28T17:34:43.679Z,35.67
2018-07-28T17:37:41.922Z,36.57
2018-07-28T17:40:40.047Z,37.69
2018-07-28T17:43:38.253Z,38.06
2018-07-28T17:46:36.508Z,37.20
2018-07-28T17:49:38.320Z,38.29
2018-07-28T17:52:36.600Z,39.21
2018-07-28T17:55:34.675Z,41.38
2018-07-28T17:58:32.673Z,41.65
2018-07-28T18:01:32.953Z,42.43
2018-07-28T18:04:31.109Z,41.43
2018-07-28T18:07:29.082Z,42.24
2018-07-28T18:10:28.356Z,45.29
2018-07-28T18:13:26.622Z,45.03
2018-07-28T18:16:25.002Z,45.16
2018-07-28T18:19:24.413Z,46.38
2018-07-28T18:22:22.451Z,46.84
2018-07-28T18:25:20.559Z,48.39
2018-07-28T18:28:18.744Z,48.68
2018-07-28T18:31:17.064Z,49.41
2018-07-28T18:34:16.027Z,50.49
2018-07-28T18:37:14.083Z,52.17
2018-07-28T18:40:11.991Z,53.42
2018-07-28T18:43:10.130Z,53.68
2018-07-28T18:46:08.526Z,52.91
2018-07-28T18:49:06.853Z,53.48
2018-07-28T18:52:05.500Z,53.14
2018-07-28T18:55:03.537Z,57.11
2018-07-28T18:58:02.857Z,57.96
2018-07-28T19:01:01.351Z,59.83
2018-07-28T19:03:59.630Z,60.29
2018-07-28T19:06:57.772Z,61.00
2018-07-28T19:09:59.097Z,60.63
2018-07-28T19:13:03.509Z,60.80
2018-07-28T19:16:01.901Z,61.80
2018-07-28T19:19:06.676Z,61.71
2018-07-28T19:22:05.061Z,62.82
2018-07-28T19:25:03.324Z,62.30
2018-07-28T19:28:07.583Z,63.56
2018-07-28T19:31:07.087Z,63.35
2018-07-28T19:34:05.864Z,65.56
2018-07-28T19:37:10.477Z,67.50
2018-07-28T19:40:08.956Z,68.62
2018-07-28T19:43:07.308Z,69.46
2018-07-28T19:46:05.789Z,69.92
2018-07-28T19:49:04.801Z,70.61
2018-07-28T19:52:03.448Z,70.78
2018-07-28T19:55:01.774Z,70.93
2018-07-28T19:57:59.915Z,71.11
2018-07-28T20:00:58.412Z,71.61
2018-07-28T20:03:57.873Z,71.97
2018-07-28T20:06:55.776Z,73.32
2018-07-28T20:09:53.876Z,74.54
2018-07-28T20:12:52.388Z,75.43
2018-07-28T20:15:50.428Z,76.40
2018-07-28T20:18:49.193Z,77.89
2018-07-28T20:21:48.325Z,77.07
2018-07-28T20:24:46.604Z,77.72
2018-07-28T20:27:44.885Z,77.95
2018-07-28T20:30:44.073Z,78.80
2018-07-28T20:33:42.605Z,77.97
2018-07-28T20:36:45.325Z,77.54
2018-07-28T20:39:43.588Z,79.93
2018-07-28T20:42:41.979Z,79.31
2018-07-28T20:45:41.802Z,79.43
2018-07-28T20:48:39.844Z,79.50
2018-07-28T20:51:37.995Z,80.36
2018-07-28T20:54:36.085Z,80.80
2018-07-28T20:57:35.456Z,83.00
2018-07-28T21:00:35.030Z,84.97
2018-07-28T21:03:33.394Z,85.37
2018-07-28T21:06:32.983Z,85.18
2018-07-28T21:09:31.664Z,85.28
2018-07-28T21:12:29.517Z,85.89
2018-07-28T21:15:27.773Z,86.64
2018-07-28T21:18:26.576Z,86.77
2018-07-28T21:21:25.046Z,85.78
2018-07-28T21:24:24.297Z,85.15
2018-07-28T21:27:22.784Z,85.02
2018-07-28T21:30:20.881Z,85.24
2018-07-28T21:33:21.803Z,85.67
2018-07-28T21:36:19.880Z,84.82
2018-07-28T21:39:19.317Z,86.00
2018-07-28T21:42:17.812Z,85.63
2018-07-28T21:45:16.233Z,85.83
2018-07-28T21:48:14.127Z,86.14
2018-07-28T21:51:13.536Z,85.82
2018-07-28T21:54:11.536Z,85.83
2018-07-28T21:57:09.955Z,86.23
2018-07-28T22:00:08.796Z,86.40
2018-07-28T22:03:07.509Z,87.29
2018-07-28T22:06:05.228Z,86.51
2018-07-28T22:09:03.197Z,87.23
2018-07-28T22:12:00.809Z,87.95
2018-07-28T22:14:59.424Z,87.32
2018-07-28T22:17:58.164Z,87.77
2018-07-28T22:20:57.981Z,87.13
2018-07-28T22:23:57.042Z,85.28
2018-07-28T22:26:55.467Z,86.65
2018-07-28T22:29:53.680Z,86.45
2018-07-28T22:32:51.989Z,86.93
2018-07-28T22:35:51.290Z,86.65
2018-07-28T22:38:49.441Z,89.10
2018-07-28T22:41:48.778Z,88.96
2018-07-28T22:44:47.000Z,88.61
2018-07-28T22:47:45.180Z,88.65
2018-07-28T22:50:43.490Z,89.78
2018-07-28T22:53:41.882Z,89.26
2018-07-28T22:56:40.131Z,89.70
2018-07-28T22:59:38.203Z,88.83
2018-07-28T23:02:37.704Z,89.52
2018-07-28T23:05:35.957Z,89.87
2018-07-28T23:08:34.540Z,90.39
2018-07-28T23:11:33.105Z,89.29
2018-07-28T23:14:31.803Z,87.37
2018-07-28T23:17:30.042Z,87.69
2018-07-28T23:20:29.444Z,88.42
2018-07-28T23:23:28.824Z,90.29
2018-07-28T23:26:27.001Z,91.14
2018-07-28T23:29:25.648Z,92.98
2018-07-28T23:32:25.022Z,92.07
2018-07-28T23:35:23.503Z,91.74
2018-07-28T23:38:22.813Z,89.72
2018-07-28T23:41:20.968Z,89.67
2018-07-28T23:44:19.457Z,90.97
2018-07-28T23:47:17.996Z,92.59
2018-07-28T23:50:16.602Z,91.94
2018-07-28T23:53:15.360Z,91.47
2018-07-28T23:56:13.912Z,92.62
2018-07-28T23:59:13.432Z,91.98
